PWSweather.com
Personal Weather Stations
Station Observations
RAINWISE1
Rainwise Factory, Bar Harbor, ME 04609

Rainwise FactoryBar Harbor, ME 04609

Lat: 44.3897429696629, Lon: -68.2077813148499

Elevation: 29

Station Type: Rainwise MK-III

www.rainwise.com

High Low Average
Temperature 47.9°F8.8°C 25.6°F-3.6°C 35.1°F1.7°C
Dew Point 18.3°F-7.6°C 9.0°F-12.8°C 12.8°F-10.7°C
Winds 9.6 mph 15.4 kmh Calm Calm 5.0 mph E8.0 kmh E
Wind Gusts 16.7 mph26.9 kmh -- 8.0 mph12.9 kmh
Humidity 72% 22% 42%
Pressure 30.07 in1018.3 mb 29.85 in1010.8 mb -
Precipitation 0.00 in0.0 mm - -
Hour Temp Dew Point Humidity Winds Wind Gusts Pressure Precip Precip Rate Daily Precip Total
12:04 AM 30.0°F-1.1°C 19.0°F-7.2°C 63% 2.9 mph N4.7 kmh N 4.4 mph7.1 kmh 30.09 in1019.0 mb 0.00 in0.0 mm 0.00 in0.0 mm 0.00 in0.0 mm
12:09 AM 30.1°F-1.1°C 19.0°F-7.2°C 63% 2.3 mph N3.7 kmh N 4.2 mph6.8 kmh 30.09 in1019.0 mb 0.00 in0.0 mm 0.00 in0.0 mm 0.00 in0.0 mm
12:14 AM 30.1°F-1.1°C 18.7°F-7.4°C 62% 2.2 mph N3.5 kmh N 3.4 mph5.5 kmh 30.09 in1019.0 mb 0.00 in0.0 mm 0.00 in0.0 mm 0.00 in0.0 mm
12:19 AM 29.9°F-1.2°C 18.5°F-7.5°C 62% 2.8 mph N4.5 kmh N 4.2 mph6.8 kmh 30.09 in1019.0 mb 0.00 in0.0 mm 0.00 in0.0 mm 0.00 in0.0 mm
12:24 AM 29.7°F-1.3°C 18.3°F-7.6°C 62% 2.9 mph N4.7 kmh N 4.1 mph6.6 kmh 30.09 in1019.0 mb 0.00 in0.0 mm 0.00 in0.0 mm 0.00 in0.0 mm
12:29 AM 29.8°F-1.2°C 17.6°F-8.0°C 60% 3.2 mph NNE5.1 kmh NNE 6.6 mph10.6 kmh 30.09 in1019.0 mb 0.00 in0.0 mm 0.00 in0.0 mm 0.00 in0.0 mm
12:34 AM 30.2°F-1.0°C 17.2°F-8.2°C 58% 3.4 mph NNE5.5 kmh NNE 6.0 mph9.7 kmh 30.08 in1018.6 mb 0.00 in0.0 mm 0.00 in0.0 mm 0.00 in0.0 mm
12:39 AM 30.6°F-0.8°C 16.8°F-8.4°C 56% 2.9 mph N4.7 kmh N 4.7 mph7.6 kmh 30.08 in1018.6 mb 0.00 in0.0 mm 0.00 in0.0 mm 0.00 in0.0 mm
12:44 AM 30.8°F-0.7°C 16.1°F-8.8°C 54% 3.7 mph N6.0 kmh N 5.8 mph9.3 kmh 30.08 in1018.6 mb 0.00 in0.0 mm 0.00 in0.0 mm 0.00 in0.0 mm
12:49 AM 30.9°F-0.6°C 15.8°F-9.0°C 53% 2.9 mph NNE4.7 kmh NNE 4.5 mph7.2 kmh 30.08 in1018.6 mb 0.00 in0.0 mm 0.00 in0.0 mm 0.00 in0.0 mm
12:54 AM 30.8°F-0.7°C 15.3°F-9.3°C 52% 4.2 mph NNE6.8 kmh NNE 6.7 mph10.8 kmh 30.07 in1018.3 mb 0.00 in0.0 mm 0.00 in0.0 mm 0.00 in0.0 mm
12:59 AM 30.8°F-0.7°C 15.3°F-9.3°C 52% 3.5 mph NNE5.6 kmh NNE 5.7 mph9.2 kmh 30.07 in1018.3 mb 0.00 in0.0 mm 0.00 in0.0 mm 0.00 in0.0 mm
01:04 AM 31.0°F-0.6°C 15.0°F-9.4°C 51% 5.2 mph NNE8.4 kmh NNE 7.6 mph12.2 kmh 30.07 in1018.3 mb 0.00 in0.0 mm 0.00 in0.0 mm 0.00 in0.0 mm
01:09 AM 31.0°F-0.6°C 15.0°F-9.4°C 51% 5.2 mph NNE8.4 kmh NNE 8.4 mph13.5 kmh 30.07 in1018.3 mb 0.00 in0.0 mm 0.00 in0.0 mm 0.00 in0.0 mm
01:14 AM 31.1°F-0.5°C 14.7°F-9.6°C 50% 4.5 mph NNE7.2 kmh NNE 6.8 mph10.9 kmh 30.07 in1018.3 mb 0.00 in0.0 mm 0.00 in0.0 mm 0.00 in0.0 mm
01:19 AM 31.2°F-0.4°C 14.8°F-9.6°C 50% 4.7 mph N7.6 kmh N 8.3 mph13.4 kmh 30.07 in1018.3 mb 0.00 in0.0 mm 0.00 in0.0 mm 0.00 in0.0 mm
01:24 AM 31.1°F-0.5°C 14.7°F-9.6°C 50% 4.1 mph NNE6.6 kmh NNE 6.6 mph10.6 kmh 30.07 in1018.3 mb 0.00 in0.0 mm 0.00 in0.0 mm 0.00 in0.0 mm
01:29 AM 31.1°F-0.5°C 14.7°F-9.6°C 50% 4.3 mph N6.9 kmh N 6.3 mph10.1 kmh 30.07 in1018.3 mb 0.00 in0.0 mm 0.00 in0.0 mm 0.00 in0.0 mm
01:34 AM 31.0°F-0.6°C 14.6°F-9.7°C 50% 3.8 mph N6.1 kmh N 7.0 mph11.3 kmh 30.06 in1017.9 mb 0.00 in0.0 mm 0.00 in0.0 mm 0.00 in0.0 mm
01:39 AM 31.0°F-0.6°C 14.1°F-9.9°C 49% 4.7 mph NNE7.6 kmh NNE 8.0 mph12.9 kmh 30.07 in1018.3 mb 0.00 in0.0 mm 0.00 in0.0 mm 0.00 in0.0 mm
01:44 AM 31.1°F-0.5°C 13.7°F-10.2°C 48% 4.5 mph NE7.2 kmh NE 7.4 mph11.9 kmh 30.07 in1018.3 mb 0.00 in0.0 mm 0.00 in0.0 mm 0.00 in0.0 mm
01:49 AM 31.0°F-0.6°C 13.6°F-10.2°C 48% 4.2 mph NNE6.8 kmh NNE 7.4 mph11.9 kmh 30.07 in1018.3 mb 0.00 in0.0 mm 0.00 in0.0 mm 0.00 in0.0 mm
01:54 AM 31.0°F-0.6°C 13.6°F-10.2°C 48% 4.5 mph N7.2 kmh N 8.4 mph13.5 kmh 30.07 in1018.3 mb 0.00 in0.0 mm 0.00 in0.0 mm 0.00 in0.0 mm
01:59 AM 30.7°F-0.7°C 13.4°F-10.3°C 48% 4.5 mph N7.2 kmh N 6.5 mph10.5 kmh 30.07 in1018.3 mb 0.00 in0.0 mm 0.00 in0.0 mm 0.00 in0.0 mm
02:04 AM 30.5°F-0.8°C 13.6°F-10.2°C 49% 5.4 mph N8.7 kmh N 8.4 mph13.5 kmh 30.07 in1018.3 mb 0.00 in0.0 mm 0.00 in0.0 mm 0.00 in0.0 mm
02:09 AM 30.3°F-0.9°C 13.5°F-10.3°C 49% 5.9 mph N9.5 kmh N 8.4 mph13.5 kmh 30.06 in1017.9 mb 0.00 in0.0 mm 0.00 in0.0 mm 0.00 in0.0 mm
02:14 AM 30.3°F-0.9°C 13.5°F-10.3°C 49% 5.0 mph N8.0 kmh N 7.0 mph11.3 kmh 30.06 in1017.9 mb 0.00 in0.0 mm 0.00 in0.0 mm 0.00 in0.0 mm
02:19 AM 30.2°F-1.0°C 13.4°F-10.3°C 49% 5.3 mph NNE8.5 kmh NNE 8.9 mph14.3 kmh 30.06 in1017.9 mb 0.00 in0.0 mm 0.00 in0.0 mm 0.00 in0.0 mm
02:24 AM 30.3°F-0.9°C 13.0°F-10.6°C 48% 5.0 mph N8.0 kmh N 7.3 mph11.7 kmh 30.05 in1017.6 mb 0.00 in0.0 mm 0.00 in0.0 mm 0.00 in0.0 mm
02:29 AM 30.3°F-0.9°C 13.0°F-10.6°C 48% 4.8 mph N7.7 kmh N 7.8 mph12.6 kmh 30.06 in1017.9 mb 0.00 in0.0 mm 0.00 in0.0 mm 0.00 in0.0 mm
02:34 AM 30.3°F-0.9°C 13.0°F-10.6°C 48% 5.0 mph NE8.0 kmh NE 7.8 mph12.6 kmh 30.06 in1017.9 mb 0.00 in0.0 mm 0.00 in0.0 mm 0.00 in0.0 mm
02:39 AM 30.2°F-1.0°C 12.9°F-10.6°C 48% 4.9 mph N7.9 kmh N 8.0 mph12.9 kmh 30.05 in1017.6 mb 0.00 in0.0 mm 0.00 in0.0 mm 0.00 in0.0 mm
02:44 AM 30.2°F-1.0°C 12.9°F-10.6°C 48% 5.8 mph NNE9.3 kmh NNE 8.8 mph14.2 kmh 30.05 in1017.6 mb 0.00 in0.0 mm 0.00 in0.0 mm 0.00 in0.0 mm
02:49 AM 30.2°F-1.0°C 12.4°F-10.9°C 47% 6.3 mph N10.1 kmh N 9.5 mph15.3 kmh 30.05 in1017.6 mb 0.00 in0.0 mm 0.00 in0.0 mm 0.00 in0.0 mm
02:54 AM 30.1°F-1.1°C 12.3°F-10.9°C 47% 5.4 mph N8.7 kmh N 8.3 mph13.4 kmh 30.05 in1017.6 mb 0.00 in0.0 mm 0.00 in0.0 mm 0.00 in0.0 mm
02:59 AM 29.8°F-1.2°C 12.1°F-11.1°C 47% 5.6 mph NNE9.0 kmh NNE 8.5 mph13.7 kmh 30.05 in1017.6 mb 0.00 in0.0 mm 0.00 in0.0 mm 0.00 in0.0 mm
03:04 AM 29.6°F-1.3°C 11.9°F-11.2°C 47% 6.6 mph NNE10.6 kmh NNE 10.5 mph16.9 kmh 30.04 in1017.3 mb 0.00 in0.0 mm 0.00 in0.0 mm 0.00 in0.0 mm
03:09 AM 29.4°F-1.4°C 11.7°F-11.3°C 47% 5.6 mph NNE9.0 kmh NNE 8.6 mph13.8 kmh 30.04 in1017.3 mb 0.00 in0.0 mm 0.00 in0.0 mm 0.00 in0.0 mm
03:14 AM 29.3°F-1.5°C 11.6°F-11.3°C 47% 6.2 mph N10.0 kmh N 9.5 mph15.3 kmh 30.04 in1017.3 mb 0.00 in0.0 mm 0.00 in0.0 mm 0.00 in0.0 mm
03:19 AM 29.3°F-1.5°C 11.6°F-11.3°C 47% 7.1 mph N11.4 kmh N 9.7 mph15.6 kmh 30.04 in1017.3 mb 0.00 in0.0 mm 0.00 in0.0 mm 0.00 in0.0 mm
03:24 AM 29.2°F-1.6°C 11.5°F-11.4°C 47% 6.5 mph NNE10.5 kmh NNE 10.1 mph16.3 kmh 30.04 in1017.3 mb 0.00 in0.0 mm 0.00 in0.0 mm 0.00 in0.0 mm
03:29 AM 29.2°F-1.6°C 11.5°F-11.4°C 47% 7.0 mph N11.3 kmh N 10.8 mph17.4 kmh 30.04 in1017.3 mb 0.00 in0.0 mm 0.00 in0.0 mm 0.00 in0.0 mm
03:34 AM 29.2°F-1.6°C 11.5°F-11.4°C 47% 6.5 mph N10.5 kmh N 10.0 mph16.1 kmh 30.04 in1017.3 mb 0.00 in0.0 mm 0.00 in0.0 mm 0.00 in0.0 mm
03:39 AM 29.2°F-1.6°C 11.5°F-11.4°C 47% 8.1 mph N13.0 kmh N 12.8 mph20.6 kmh 30.03 in1016.9 mb 0.00 in0.0 mm 0.00 in0.0 mm 0.00 in0.0 mm
03:44 AM 29.2°F-1.6°C 11.5°F-11.4°C 47% 5.9 mph NNE9.5 kmh NNE 9.0 mph14.5 kmh 30.03 in1016.9 mb 0.00 in0.0 mm 0.00 in0.0 mm 0.00 in0.0 mm
03:49 AM 29.0°F-1.7°C 11.3°F-11.5°C 47% 5.8 mph NNE9.3 kmh NNE 9.5 mph15.3 kmh 30.04 in1017.3 mb 0.00 in0.0 mm 0.00 in0.0 mm 0.00 in0.0 mm
03:54 AM 28.8°F-1.8°C 11.6°F-11.3°C 48% 6.4 mph NNE10.3 kmh NNE 9.9 mph15.9 kmh 30.04 in1017.3 mb 0.00 in0.0 mm 0.00 in0.0 mm 0.00 in0.0 mm
03:59 AM 28.7°F-1.8°C 11.5°F-11.4°C 48% 5.7 mph NNE9.2 kmh NNE 9.1 mph14.6 kmh 30.04 in1017.3 mb 0.00 in0.0 mm 0.00 in0.0 mm 0.00 in0.0 mm
04:04 AM 28.7°F-1.8°C 11.5°F-11.4°C 48% 6.2 mph N10.0 kmh N 9.2 mph14.8 kmh 30.04 in1017.3 mb 0.00 in0.0 mm 0.00 in0.0 mm 0.00 in0.0 mm
04:09 AM 28.6°F-1.9°C 11.0°F-11.7°C 47% 6.4 mph NNE10.3 kmh NNE 9.7 mph15.6 kmh 30.03 in1016.9 mb 0.00 in0.0 mm 0.00 in0.0 mm 0.00 in0.0 mm
04:14 AM 28.6°F-1.9°C 11.0°F-11.7°C 47% 7.0 mph N11.3 kmh N 10.1 mph16.3 kmh 30.03 in1016.9 mb 0.00 in0.0 mm 0.00 in0.0 mm 0.00 in0.0 mm
04:19 AM 28.6°F-1.9°C 10.5°F-11.9°C 46% 6.3 mph NNE10.1 kmh NNE 10.9 mph17.5 kmh 30.04 in1017.3 mb 0.00 in0.0 mm 0.00 in0.0 mm 0.00 in0.0 mm
04:24 AM 28.3°F-2.1°C 10.2°F-12.1°C 46% 5.4 mph N8.7 kmh N 8.7 mph14.0 kmh 30.04 in1017.3 mb 0.00 in0.0 mm 0.00 in0.0 mm 0.00 in0.0 mm
04:29 AM 28.3°F-2.1°C 10.2°F-12.1°C 46% 6.0 mph N9.7 kmh N 9.6 mph15.4 kmh 30.04 in1017.3 mb 0.00 in0.0 mm 0.00 in0.0 mm 0.00 in0.0 mm
04:34 AM 28.3°F-2.1°C 10.2°F-12.1°C 46% 6.2 mph NNE10.0 kmh NNE 10.1 mph16.3 kmh 30.04 in1017.3 mb 0.00 in0.0 mm 0.00 in0.0 mm 0.00 in0.0 mm
04:39 AM 28.2°F-2.1°C 10.1°F-12.2°C 46% 6.3 mph N10.1 kmh N 10.2 mph16.4 kmh 30.05 in1017.6 mb 0.00 in0.0 mm 0.00 in0.0 mm 0.00 in0.0 mm
04:44 AM 28.2°F-2.1°C 10.1°F-12.2°C 46% 5.3 mph NNE8.5 kmh NNE 8.8 mph14.2 kmh 30.04 in1017.3 mb 0.00 in0.0 mm 0.00 in0.0 mm 0.00 in0.0 mm
04:49 AM 28.1°F-2.2°C 10.0°F-12.2°C 46% 6.0 mph NNE9.7 kmh NNE 10.3 mph16.6 kmh 30.04 in1017.3 mb 0.00 in0.0 mm 0.00 in0.0 mm 0.00 in0.0 mm
04:54 AM 28.0°F-2.2°C 9.9°F-12.3°C 46% 5.5 mph NE8.9 kmh NE 8.7 mph14.0 kmh 30.04 in1017.3 mb 0.00 in0.0 mm 0.00 in0.0 mm 0.00 in0.0 mm
04:59 AM 28.0°F-2.2°C 9.9°F-12.3°C 46% 6.8 mph NNE10.9 kmh NNE 11.6 mph18.7 kmh 30.05 in1017.6 mb 0.00 in0.0 mm 0.00 in0.0 mm 0.00 in0.0 mm
05:04 AM 27.8°F-2.3°C 9.7°F-12.4°C 46% 6.2 mph NNE10.0 kmh NNE 10.0 mph16.1 kmh 30.04 in1017.3 mb 0.00 in0.0 mm 0.00 in0.0 mm 0.00 in0.0 mm
05:09 AM 27.8°F-2.3°C 10.2°F-12.1°C 47% 5.4 mph N8.7 kmh N 9.4 mph15.1 kmh 30.05 in1017.6 mb 0.00 in0.0 mm 0.00 in0.0 mm 0.00 in0.0 mm
05:14 AM 27.7°F-2.4°C 10.1°F-12.2°C 47% 5.8 mph NE9.3 kmh NE 9.2 mph14.8 kmh 30.05 in1017.6 mb 0.00 in0.0 mm 0.00 in0.0 mm 0.00 in0.0 mm
05:19 AM 27.6°F-2.4°C 10.5°F-11.9°C 48% 4.7 mph N7.6 kmh N 7.1 mph11.4 kmh 30.05 in1017.6 mb 0.00 in0.0 mm 0.00 in0.0 mm 0.00 in0.0 mm
05:24 AM 27.3°F-2.6°C 10.2°F-12.1°C 48% 5.4 mph N8.7 kmh N 8.5 mph13.7 kmh 30.05 in1017.6 mb 0.00 in0.0 mm 0.00 in0.0 mm 0.00 in0.0 mm
05:29 AM 27.3°F-2.6°C 10.7°F-11.8°C 49% 6.2 mph NNE10.0 kmh NNE 10.2 mph16.4 kmh 30.05 in1017.6 mb 0.00 in0.0 mm 0.00 in0.0 mm 0.00 in0.0 mm
05:34 AM 27.2°F-2.7°C 10.6°F-11.9°C 49% 5.6 mph NNE9.0 kmh NNE 9.0 mph14.5 kmh 30.05 in1017.6 mb 0.00 in0.0 mm 0.00 in0.0 mm 0.00 in0.0 mm
05:39 AM 27.1°F-2.7°C 10.5°F-11.9°C 49% 6.4 mph N10.3 kmh N 9.8 mph15.8 kmh 30.05 in1017.6 mb 0.00 in0.0 mm 0.00 in0.0 mm 0.00 in0.0 mm
05:44 AM 26.9°F-2.8°C 10.3°F-12.1°C 49% 6.1 mph N9.8 kmh N 9.4 mph15.1 kmh 30.05 in1017.6 mb 0.00 in0.0 mm 0.00 in0.0 mm 0.00 in0.0 mm
05:49 AM 26.6°F-3.0°C 10.5°F-11.9°C 50% 7.0 mph NNE11.3 kmh NNE 10.6 mph17.1 kmh 30.05 in1017.6 mb 0.00 in0.0 mm 0.00 in0.0 mm 0.00 in0.0 mm
05:54 AM 26.6°F-3.0°C 10.5°F-11.9°C 50% 5.7 mph N9.2 kmh N 9.6 mph15.4 kmh 30.05 in1017.6 mb 0.00 in0.0 mm 0.00 in0.0 mm 0.00 in0.0 mm
05:59 AM 26.6°F-3.0°C 10.9°F-11.7°C 51% 5.5 mph NNE8.9 kmh NNE 8.0 mph12.9 kmh 30.05 in1017.6 mb 0.00 in0.0 mm 0.00 in0.0 mm 0.00 in0.0 mm
06:04 AM 26.6°F-3.0°C 10.9°F-11.7°C 51% 6.2 mph N10.0 kmh N 9.8 mph15.8 kmh 30.05 in1017.6 mb 0.00 in0.0 mm 0.00 in0.0 mm 0.00 in0.0 mm
06:09 AM 26.4°F-3.1°C 10.8°F-11.8°C 51% 6.8 mph NNE10.9 kmh NNE 12.1 mph19.5 kmh 30.05 in1017.6 mb 0.00 in0.0 mm 0.00 in0.0 mm 0.00 in0.0 mm
06:14 AM 26.3°F-3.2°C 11.1°F-11.6°C 52% 5.7 mph NNE9.2 kmh NNE 10.1 mph16.3 kmh 30.05 in1017.6 mb 0.00 in0.0 mm 0.00 in0.0 mm 0.00 in0.0 mm
06:19 AM 26.5°F-3.1°C 11.3°F-11.5°C 52% 7.4 mph N11.9 kmh N 11.5 mph18.5 kmh 30.05 in1017.6 mb 0.00 in0.0 mm 0.00 in0.0 mm 0.00 in0.0 mm
06:24 AM 26.6°F-3.0°C 11.4°F-11.4°C 52% 6.5 mph NNE10.5 kmh NNE 9.7 mph15.6 kmh 30.05 in1017.6 mb 0.00 in0.0 mm 0.00 in0.0 mm 0.00 in0.0 mm
06:29 AM 26.5°F-3.1°C 11.3°F-11.5°C 52% 5.7 mph N9.2 kmh N 8.7 mph14.0 kmh 30.05 in1017.6 mb 0.00 in0.0 mm 0.00 in0.0 mm 0.00 in0.0 mm
06:34 AM 26.3°F-3.2°C 11.1°F-11.6°C 52% 5.8 mph NNE9.3 kmh NNE 10.5 mph16.9 kmh 30.05 in1017.6 mb 0.00 in0.0 mm 0.00 in0.0 mm 0.00 in0.0 mm
06:39 AM 26.3°F-3.2°C 11.1°F-11.6°C 52% 6.0 mph N9.7 kmh N 8.9 mph14.3 kmh 30.05 in1017.6 mb 0.00 in0.0 mm 0.00 in0.0 mm 0.00 in0.0 mm
06:44 AM 26.1°F-3.3°C 10.9°F-11.7°C 52% 6.4 mph N10.3 kmh N 9.9 mph15.9 kmh 30.05 in1017.6 mb 0.00 in0.0 mm 0.00 in0.0 mm 0.00 in0.0 mm
06:49 AM 25.8°F-3.4°C 11.1°F-11.6°C 53% 6.6 mph NNE10.6 kmh NNE 10.2 mph16.4 kmh 30.05 in1017.6 mb 0.00 in0.0 mm 0.00 in0.0 mm 0.00 in0.0 mm
06:54 AM 25.8°F-3.4°C 11.1°F-11.6°C 53% 7.1 mph N11.4 kmh N 10.3 mph16.6 kmh 30.05 in1017.6 mb 0.00 in0.0 mm 0.00 in0.0 mm 0.00 in0.0 mm
06:59 AM 25.8°F-3.4°C 11.1°F-11.6°C 53% 7.1 mph NNE11.4 kmh NNE 11.1 mph17.9 kmh 30.05 in1017.6 mb 0.00 in0.0 mm 0.00 in0.0 mm 0.00 in0.0 mm
07:04 AM 25.6°F-3.6°C 10.9°F-11.7°C 53% 6.1 mph N9.8 kmh N 9.1 mph14.6 kmh 30.05 in1017.6 mb 0.00 in0.0 mm 0.00 in0.0 mm 0.00 in0.0 mm
07:09 AM 25.6°F-3.6°C 10.9°F-11.7°C 53% 6.5 mph NNE10.5 kmh NNE 11.0 mph17.7 kmh 30.05 in1017.6 mb 0.00 in0.0 mm 0.00 in0.0 mm 0.00 in0.0 mm
07:14 AM 26.0°F-3.3°C 11.2°F-11.6°C 53% 6.7 mph N10.8 kmh N 10.1 mph16.3 kmh 30.05 in1017.6 mb 0.00 in0.0 mm 0.00 in0.0 mm 0.00 in0.0 mm
07:19 AM 26.3°F-3.2°C 11.1°F-11.6°C 52% 6.0 mph N9.7 kmh N 9.1 mph14.6 kmh 30.05 in1017.6 mb 0.00 in0.0 mm 0.00 in0.0 mm 0.00 in0.0 mm
07:24 AM 26.6°F-3.0°C 11.4°F-11.4°C 52% 6.8 mph NNE10.9 kmh NNE 10.5 mph16.9 kmh 30.05 in1017.6 mb 0.00 in0.0 mm 0.00 in0.0 mm 0.00 in0.0 mm
07:29 AM 26.7°F-2.9°C 11.5°F-11.4°C 52% 6.6 mph NNE10.6 kmh NNE 9.3 mph15.0 kmh 30.05 in1017.6 mb 0.00 in0.0 mm 0.00 in0.0 mm 0.00 in0.0 mm
07:34 AM 26.9°F-2.8°C 11.7°F-11.3°C 52% 6.5 mph N10.5 kmh N 10.5 mph16.9 kmh 30.05 in1017.6 mb 0.00 in0.0 mm 0.00 in0.0 mm 0.00 in0.0 mm
07:39 AM 27.2°F-2.7°C 11.5°F-11.4°C 51% 7.0 mph N11.3 kmh N 10.9 mph17.5 kmh 30.05 in1017.6 mb 0.00 in0.0 mm 0.00 in0.0 mm 0.00 in0.0 mm
07:44 AM 27.6°F-2.4°C 11.4°F-11.4°C 50% 6.7 mph NNE10.8 kmh NNE 9.8 mph15.8 kmh 30.05 in1017.6 mb 0.00 in0.0 mm 0.00 in0.0 mm 0.00 in0.0 mm
07:49 AM 27.7°F-2.4°C 11.5°F-11.4°C 50% 6.9 mph N11.1 kmh N 9.6 mph15.4 kmh 30.05 in1017.6 mb 0.00 in0.0 mm 0.00 in0.0 mm 0.00 in0.0 mm
07:54 AM 27.8°F-2.3°C 11.6°F-11.3°C 50% 7.6 mph NNE12.2 kmh NNE 11.8 mph19.0 kmh 30.05 in1017.6 mb 0.00 in0.0 mm 0.00 in0.0 mm 0.00 in0.0 mm
07:59 AM 28.1°F-2.2°C 11.9°F-11.2°C 50% 7.7 mph N12.4 kmh N 11.7 mph18.8 kmh 30.05 in1017.6 mb 0.00 in0.0 mm 0.00 in0.0 mm 0.00 in0.0 mm
08:04 AM 28.3°F-2.1°C 11.6°F-11.3°C 49% 8.7 mph N14.0 kmh N 13.8 mph22.2 kmh 30.05 in1017.6 mb 0.00 in0.0 mm 0.00 in0.0 mm 0.00 in0.0 mm
08:09 AM 28.7°F-1.8°C 11.5°F-11.4°C 48% 8.5 mph N13.7 kmh N 15.1 mph24.3 kmh 30.05 in1017.6 mb 0.00 in0.0 mm 0.00 in0.0 mm 0.00 in0.0 mm
08:14 AM 29.0°F-1.7°C 11.8°F-11.2°C 48% 7.0 mph N11.3 kmh N 10.6 mph17.1 kmh 30.05 in1017.6 mb 0.00 in0.0 mm 0.00 in0.0 mm 0.00 in0.0 mm
08:19 AM 29.4°F-1.4°C 11.7°F-11.3°C 47% 6.3 mph N10.1 kmh N 9.5 mph15.3 kmh 30.06 in1017.9 mb 0.00 in0.0 mm 0.00 in0.0 mm 0.00 in0.0 mm
08:24 AM 29.8°F-1.2°C 12.1°F-11.1°C 47% 8.1 mph N13.0 kmh N 12.1 mph19.5 kmh 30.06 in1017.9 mb 0.00 in0.0 mm 0.00 in0.0 mm 0.00 in0.0 mm
08:29 AM 30.1°F-1.1°C 11.9°F-11.2°C 46% 7.8 mph N12.6 kmh N 10.7 mph17.2 kmh 30.06 in1017.9 mb 0.00 in0.0 mm 0.00 in0.0 mm 0.00 in0.0 mm
08:34 AM 30.3°F-0.9°C 12.0°F-11.1°C 46% 7.7 mph NNE12.4 kmh NNE 11.1 mph17.9 kmh 30.06 in1017.9 mb 0.00 in0.0 mm 0.00 in0.0 mm 0.00 in0.0 mm
08:39 AM 30.7°F-0.7°C 11.9°F-11.2°C 45% 8.2 mph N13.2 kmh N 12.0 mph19.3 kmh 30.06 in1017.9 mb 0.00 in0.0 mm 0.00 in0.0 mm 0.00 in0.0 mm
08:44 AM 31.1°F-0.5°C 12.3°F-10.9°C 45% 5.9 mph N9.5 kmh N 10.5 mph16.9 kmh 30.06 in1017.9 mb 0.00 in0.0 mm 0.00 in0.0 mm 0.00 in0.0 mm
08:49 AM 31.5°F-0.3°C 12.1°F-11.1°C 44% 8.0 mph NNE12.9 kmh NNE 13.7 mph22.0 kmh 30.06 in1017.9 mb 0.00 in0.0 mm 0.00 in0.0 mm 0.00 in0.0 mm
08:54 AM 31.8°F-0.1°C 11.9°F-11.2°C 43% 7.2 mph N11.6 kmh N 11.8 mph19.0 kmh 30.06 in1017.9 mb 0.00 in0.0 mm 0.00 in0.0 mm 0.00 in0.0 mm
08:59 AM 32.2°F0.1°C 11.7°F-11.3°C 42% 7.9 mph N12.7 kmh N 12.0 mph19.3 kmh 30.06 in1017.9 mb 0.00 in0.0 mm 0.00 in0.0 mm 0.00 in0.0 mm
09:04 AM 32.6°F0.3°C 12.1°F-11.1°C 42% 7.1 mph N11.4 kmh N 10.7 mph17.2 kmh 30.06 in1017.9 mb 0.00 in0.0 mm 0.00 in0.0 mm 0.00 in0.0 mm
09:09 AM 32.7°F0.4°C 11.6°F-11.3°C 41% 7.2 mph NNE11.6 kmh NNE 12.0 mph19.3 kmh 30.06 in1017.9 mb 0.00 in0.0 mm 0.00 in0.0 mm 0.00 in0.0 mm
09:14 AM 33.1°F0.6°C 12.0°F-11.1°C 41% 6.8 mph NE10.9 kmh NE 11.2 mph18.0 kmh 30.06 in1017.9 mb 0.00 in0.0 mm 0.00 in0.0 mm 0.00 in0.0 mm
09:19 AM 33.6°F0.9°C 11.9°F-11.2°C 40% 6.8 mph N10.9 kmh N 10.5 mph16.9 kmh 30.06 in1017.9 mb 0.00 in0.0 mm 0.00 in0.0 mm 0.00 in0.0 mm
09:24 AM 33.9°F1.1°C 11.6°F-11.3°C 39% 7.0 mph NNE11.3 kmh NNE 12.9 mph20.8 kmh 30.06 in1017.9 mb 0.00 in0.0 mm 0.00 in0.0 mm 0.00 in0.0 mm
09:29 AM 34.0°F1.1°C 11.7°F-11.3°C 39% 7.2 mph NNE11.6 kmh NNE 12.8 mph20.6 kmh 30.06 in1017.9 mb 0.00 in0.0 mm 0.00 in0.0 mm 0.00 in0.0 mm
09:34 AM 34.2°F1.2°C 11.9°F-11.2°C 39% 6.3 mph NNE10.1 kmh NNE 12.4 mph20.0 kmh 30.06 in1017.9 mb 0.00 in0.0 mm 0.00 in0.0 mm 0.00 in0.0 mm
09:39 AM 34.5°F1.4°C 12.1°F-11.1°C 39% 9.6 mph N15.4 kmh N 15.0 mph24.1 kmh 30.06 in1017.9 mb 0.00 in0.0 mm 0.00 in0.0 mm 0.00 in0.0 mm
09:44 AM 34.7°F1.5°C 12.3°F-10.9°C 39% 8.1 mph NNE13.0 kmh NNE 12.7 mph20.4 kmh 30.06 in1017.9 mb 0.00 in0.0 mm 0.00 in0.0 mm 0.00 in0.0 mm
09:49 AM 34.6°F1.4°C 12.2°F-11.0°C 39% 8.8 mph N14.2 kmh N 14.2 mph22.9 kmh 30.06 in1017.9 mb 0.00 in0.0 mm 0.00 in0.0 mm 0.00 in0.0 mm
09:54 AM 34.8°F1.6°C 12.4°F-10.9°C 39% 6.3 mph NNE10.1 kmh NNE 11.4 mph18.3 kmh 30.06 in1017.9 mb 0.00 in0.0 mm 0.00 in0.0 mm 0.00 in0.0 mm
09:59 AM 35.3°F1.8°C 13.4°F-10.3°C 40% 7.8 mph NE12.6 kmh NE 13.0 mph20.9 kmh 30.05 in1017.6 mb 0.00 in0.0 mm 0.00 in0.0 mm 0.00 in0.0 mm
10:04 AM 35.3°F1.8°C 13.4°F-10.3°C 40% 7.6 mph N12.2 kmh N 12.4 mph20.0 kmh 30.05 in1017.6 mb 0.00 in0.0 mm 0.00 in0.0 mm 0.00 in0.0 mm
10:09 AM 35.7°F2.1°C 13.8°F-10.1°C 40% 8.4 mph NNE13.5 kmh NNE 14.3 mph23.0 kmh 30.05 in1017.6 mb 0.00 in0.0 mm 0.00 in0.0 mm 0.00 in0.0 mm
10:14 AM 35.9°F2.2°C 14.0°F-10.0°C 40% 6.9 mph N11.1 kmh N 11.4 mph18.3 kmh 30.05 in1017.6 mb 0.00 in0.0 mm 0.00 in0.0 mm 0.00 in0.0 mm
10:19 AM 36.2°F2.3°C 14.2°F-9.9°C 40% 8.1 mph NNE13.0 kmh NNE 12.8 mph20.6 kmh 30.05 in1017.6 mb 0.00 in0.0 mm 0.00 in0.0 mm 0.00 in0.0 mm
10:24 AM 36.3°F2.4°C 14.3°F-9.8°C 40% 8.4 mph N13.5 kmh N 13.9 mph22.4 kmh 30.05 in1017.6 mb 0.00 in0.0 mm 0.00 in0.0 mm 0.00 in0.0 mm
10:29 AM 36.4°F2.4°C 14.4°F-9.8°C 40% 7.6 mph NNE12.2 kmh NNE 12.8 mph20.6 kmh 30.05 in1017.6 mb 0.00 in0.0 mm 0.00 in0.0 mm 0.00 in0.0 mm
10:34 AM 36.8°F2.7°C 14.8°F-9.6°C 40% 7.9 mph NNE12.7 kmh NNE 15.0 mph24.1 kmh 30.05 in1017.6 mb 0.00 in0.0 mm 0.00 in0.0 mm 0.00 in0.0 mm
10:39 AM 37.1°F2.8°C 15.0°F-9.4°C 40% 9.5 mph NE15.3 kmh NE 13.5 mph21.7 kmh 30.05 in1017.6 mb 0.00 in0.0 mm 0.00 in0.0 mm 0.00 in0.0 mm
10:44 AM 37.2°F2.9°C 15.1°F-9.4°C 40% 9.1 mph N14.6 kmh N 13.3 mph21.4 kmh 30.05 in1017.6 mb 0.00 in0.0 mm 0.00 in0.0 mm 0.00 in0.0 mm
10:49 AM 37.3°F2.9°C 15.2°F-9.3°C 40% 8.5 mph NE13.7 kmh NE 12.9 mph20.8 kmh 30.05 in1017.6 mb 0.00 in0.0 mm 0.00 in0.0 mm 0.00 in0.0 mm
10:54 AM 37.7°F3.2°C 15.6°F-9.1°C 40% 9.5 mph NNE15.3 kmh NNE 16.7 mph26.9 kmh 30.04 in1017.3 mb 0.00 in0.0 mm 0.00 in0.0 mm 0.00 in0.0 mm
10:59 AM 38.1°F3.4°C 15.9°F-8.9°C 40% 6.9 mph NNE11.1 kmh NNE 10.8 mph17.4 kmh 30.04 in1017.3 mb 0.00 in0.0 mm 0.00 in0.0 mm 0.00 in0.0 mm
11:04 AM 38.6°F3.7°C 16.4°F-8.7°C 40% 4.8 mph NE7.7 kmh NE 9.7 mph15.6 kmh 30.04 in1017.3 mb 0.00 in0.0 mm 0.00 in0.0 mm 0.00 in0.0 mm
11:09 AM 38.7°F3.7°C 15.9°F-8.9°C 39% 7.9 mph NE12.7 kmh NE 12.9 mph20.8 kmh 30.04 in1017.3 mb 0.00 in0.0 mm 0.00 in0.0 mm 0.00 in0.0 mm
11:14 AM 38.8°F3.8°C 15.4°F-9.2°C 38% 8.9 mph N14.3 kmh N 12.6 mph20.3 kmh 30.03 in1016.9 mb 0.00 in0.0 mm 0.00 in0.0 mm 0.00 in0.0 mm
11:19 AM 39.1°F3.9°C 15.7°F-9.1°C 38% 6.3 mph NNE10.1 kmh NNE 11.0 mph17.7 kmh 30.03 in1016.9 mb 0.00 in0.0 mm 0.00 in0.0 mm 0.00 in0.0 mm
11:24 AM 39.5°F4.2°C 16.0°F-8.9°C 38% 6.9 mph N11.1 kmh N 12.0 mph19.3 kmh 30.04 in1017.3 mb 0.00 in0.0 mm 0.00 in0.0 mm 0.00 in0.0 mm
11:29 AM 39.9°F4.4°C 15.8°F-9.0°C 37% 6.3 mph NNE10.1 kmh NNE 10.4 mph16.7 kmh 30.04 in1017.3 mb 0.00 in0.0 mm 0.00 in0.0 mm 0.00 in0.0 mm
11:34 AM 40.4°F4.7°C 16.2°F-8.8°C 37% 5.9 mph NNE9.5 kmh NNE 10.0 mph16.1 kmh 30.04 in1017.3 mb 0.00 in0.0 mm 0.00 in0.0 mm 0.00 in0.0 mm
11:39 AM 40.5°F4.7°C 16.3°F-8.7°C 37% 6.3 mph NE10.1 kmh NE 11.3 mph18.2 kmh 30.04 in1017.3 mb 0.00 in0.0 mm 0.00 in0.0 mm 0.00 in0.0 mm
11:44 AM 40.3°F4.6°C 15.5°F-9.2°C 36% 6.7 mph NNE10.8 kmh NNE 10.1 mph16.3 kmh 30.04 in1017.3 mb 0.00 in0.0 mm 0.00 in0.0 mm 0.00 in0.0 mm
11:49 AM 40.5°F4.7°C 15.7°F-9.1°C 36% 6.3 mph NE10.1 kmh NE 10.5 mph16.9 kmh 30.04 in1017.3 mb 0.00 in0.0 mm 0.00 in0.0 mm 0.00 in0.0 mm
11:54 AM 40.6°F4.8°C 15.8°F-9.0°C 36% 6.3 mph N10.1 kmh N 10.4 mph16.7 kmh 30.03 in1016.9 mb 0.00 in0.0 mm 0.00 in0.0 mm 0.00 in0.0 mm
11:59 AM 41.0°F5.0°C 16.1°F-8.8°C 36% 7.3 mph NNE11.7 kmh NNE 11.2 mph18.0 kmh 30.03 in1016.9 mb 0.00 in0.0 mm 0.00 in0.0 mm 0.00 in0.0 mm
12:04 PM 41.3°F5.2°C 15.7°F-9.1°C 35% 6.1 mph NNE9.8 kmh NNE 10.8 mph17.4 kmh 30.03 in1016.9 mb 0.00 in0.0 mm 0.00 in0.0 mm 0.00 in0.0 mm
12:09 PM 41.2°F5.1°C 15.6°F-9.1°C 35% 7.3 mph N11.7 kmh N 12.3 mph19.8 kmh 30.03 in1016.9 mb 0.00 in0.0 mm 0.00 in0.0 mm 0.00 in0.0 mm
12:14 PM 41.5°F5.3°C 15.9°F-8.9°C 35% 7.7 mph NE12.4 kmh NE 13.1 mph21.1 kmh 30.03 in1016.9 mb 0.00 in0.0 mm 0.00 in0.0 mm 0.00 in0.0 mm
12:19 PM 41.6°F5.3°C 15.3°F-9.3°C 34% 5.2 mph N8.4 kmh N 9.6 mph15.4 kmh 30.03 in1016.9 mb 0.00 in0.0 mm 0.00 in0.0 mm 0.00 in0.0 mm
12:24 PM 41.7°F5.4°C 16.1°F-8.8°C 35% 7.9 mph NE12.7 kmh NE 12.3 mph19.8 kmh 30.03 in1016.9 mb 0.00 in0.0 mm 0.00 in0.0 mm 0.00 in0.0 mm
12:29 PM 42.0°F5.6°C 15.7°F-9.1°C 34% 5.6 mph N9.0 kmh N 10.0 mph16.1 kmh 30.02 in1016.6 mb 0.00 in0.0 mm 0.00 in0.0 mm 0.00 in0.0 mm
12:34 PM 42.5°F5.8°C 16.1°F-8.8°C 34% 7.8 mph NNE12.6 kmh NNE 13.4 mph21.6 kmh 30.02 in1016.6 mb 0.00 in0.0 mm 0.00 in0.0 mm 0.00 in0.0 mm
12:39 PM 42.9°F6.1°C 15.8°F-9.0°C 33% 8.5 mph N13.7 kmh N 13.4 mph21.6 kmh 30.02 in1016.6 mb 0.00 in0.0 mm 0.00 in0.0 mm 0.00 in0.0 mm
12:44 PM 43.0°F6.1°C 15.9°F-8.9°C 33% 6.9 mph N11.1 kmh N 11.4 mph18.3 kmh 30.02 in1016.6 mb 0.00 in0.0 mm 0.00 in0.0 mm 0.00 in0.0 mm
12:49 PM 43.2°F6.2°C 15.4°F-9.2°C 32% 8.3 mph N13.4 kmh N 12.3 mph19.8 kmh 30.01 in1016.3 mb 0.00 in0.0 mm 0.00 in0.0 mm 0.00 in0.0 mm
12:54 PM 43.3°F6.3°C 15.4°F-9.2°C 32% 6.1 mph NNE9.8 kmh NNE 10.8 mph17.4 kmh 30.01 in1016.3 mb 0.00 in0.0 mm 0.00 in0.0 mm 0.00 in0.0 mm
12:59 PM 43.3°F6.3°C 15.4°F-9.2°C 32% 7.9 mph NNE12.7 kmh NNE 12.7 mph20.4 kmh 30.01 in1016.3 mb 0.00 in0.0 mm 0.00 in0.0 mm 0.00 in0.0 mm
01:04 PM 43.6°F6.4°C 15.0°F-9.4°C 31% 6.8 mph NE10.9 kmh NE 10.8 mph17.4 kmh 30.01 in1016.3 mb 0.00 in0.0 mm 0.00 in0.0 mm 0.00 in0.0 mm
01:09 PM 43.6°F6.4°C 15.0°F-9.4°C 31% 7.6 mph NNE12.2 kmh NNE 12.4 mph20.0 kmh 30.01 in1016.3 mb 0.00 in0.0 mm 0.00 in0.0 mm 0.00 in0.0 mm
01:14 PM 43.6°F6.4°C 14.2°F-9.9°C 30% 6.2 mph NE10.0 kmh NE 12.3 mph19.8 kmh 30.01 in1016.3 mb 0.00 in0.0 mm 0.00 in0.0 mm 0.00 in0.0 mm
01:19 PM 43.8°F6.6°C 14.4°F-9.8°C 30% 7.7 mph NNE12.4 kmh NNE 12.1 mph19.5 kmh 30.01 in1016.3 mb 0.00 in0.0 mm 0.00 in0.0 mm 0.00 in0.0 mm
01:24 PM 44.2°F6.8°C 14.8°F-9.6°C 30% 6.2 mph NE10.0 kmh NE 11.9 mph19.2 kmh 30.01 in1016.3 mb 0.00 in0.0 mm 0.00 in0.0 mm 0.00 in0.0 mm
01:29 PM 44.1°F6.7°C 13.9°F-10.1°C 29% 8.0 mph NNE12.9 kmh NNE 12.2 mph19.6 kmh 30.00 in1015.9 mb 0.00 in0.0 mm 0.00 in0.0 mm 0.00 in0.0 mm
01:34 PM 44.2°F6.8°C 14.0°F-10.0°C 29% 5.7 mph NE9.2 kmh NE 9.2 mph14.8 kmh 30.00 in1015.9 mb 0.00 in0.0 mm 0.00 in0.0 mm 0.00 in0.0 mm
01:39 PM 44.8°F7.1°C 14.5°F-9.7°C 29% 3.6 mph NNE5.8 kmh NNE 7.0 mph11.3 kmh 30.00 in1015.9 mb 0.00 in0.0 mm 0.00 in0.0 mm 0.00 in0.0 mm
01:44 PM 45.3°F7.4°C 14.9°F-9.5°C 29% 5.6 mph NE9.0 kmh NE 10.1 mph16.3 kmh 30.00 in1015.9 mb 0.00 in0.0 mm 0.00 in0.0 mm 0.00 in0.0 mm
01:49 PM 45.2°F7.3°C 14.9°F-9.5°C 29% 7.2 mph NE11.6 kmh NE 12.8 mph20.6 kmh 30.00 in1015.9 mb 0.00 in0.0 mm 0.00 in0.0 mm 0.00 in0.0 mm
01:54 PM 44.7°F7.1°C 13.6°F-10.2°C 28% 6.4 mph NE10.3 kmh NE 11.0 mph17.7 kmh 29.99 in1015.6 mb 0.00 in0.0 mm 0.00 in0.0 mm 0.00 in0.0 mm
01:59 PM 45.1°F7.3°C 13.1°F-10.5°C 27% 5.8 mph NE9.3 kmh NE 9.3 mph15.0 kmh 29.99 in1015.6 mb 0.00 in0.0 mm 0.00 in0.0 mm 0.00 in0.0 mm
02:04 PM 45.3°F7.4°C 13.3°F-10.4°C 27% 7.6 mph NNE12.2 kmh NNE 12.5 mph20.1 kmh 29.99 in1015.6 mb 0.00 in0.0 mm 0.00 in0.0 mm 0.00 in0.0 mm
02:09 PM 45.3°F7.4°C 12.5°F-10.8°C 26% 6.4 mph N10.3 kmh N 10.5 mph16.9 kmh 29.98 in1015.2 mb 0.00 in0.0 mm 0.00 in0.0 mm 0.00 in0.0 mm
02:14 PM 45.3°F7.4°C 12.5°F-10.8°C 26% 7.9 mph NNE12.7 kmh NNE 14.1 mph22.7 kmh 29.98 in1015.2 mb 0.00 in0.0 mm 0.00 in0.0 mm 0.00 in0.0 mm
02:19 PM 45.7°F7.6°C 12.8°F-10.7°C 26% 4.2 mph NNE6.8 kmh NNE 7.9 mph12.7 kmh 29.98 in1015.2 mb 0.00 in0.0 mm 0.00 in0.0 mm 0.00 in0.0 mm
02:24 PM 46.0°F7.8°C 13.1°F-10.5°C 26% 6.7 mph NE10.8 kmh NE 10.5 mph16.9 kmh 29.97 in1014.9 mb 0.00 in0.0 mm 0.00 in0.0 mm 0.00 in0.0 mm
02:29 PM 45.9°F7.7°C 13.0°F-10.6°C 26% 6.0 mph NNE9.7 kmh NNE 9.3 mph15.0 kmh 29.97 in1014.9 mb 0.00 in0.0 mm 0.00 in0.0 mm 0.00 in0.0 mm
02:34 PM 46.2°F7.9°C 13.2°F-10.4°C 26% 5.9 mph NNE9.5 kmh NNE 11.2 mph18.0 kmh 29.96 in1014.6 mb 0.00 in0.0 mm 0.00 in0.0 mm 0.00 in0.0 mm
02:39 PM 46.4°F8.0°C 13.4°F-10.3°C 26% 5.0 mph NNE8.0 kmh NNE 7.9 mph12.7 kmh 29.96 in1014.6 mb 0.00 in0.0 mm 0.00 in0.0 mm 0.00 in0.0 mm
02:44 PM 46.6°F8.1°C 13.6°F-10.2°C 26% 6.5 mph NE10.5 kmh NE 10.4 mph16.7 kmh 29.96 in1014.6 mb 0.00 in0.0 mm 0.00 in0.0 mm 0.00 in0.0 mm
02:49 PM 46.5°F8.1°C 12.6°F-10.8°C 25% 5.5 mph N8.9 kmh N 8.5 mph13.7 kmh 29.95 in1014.2 mb 0.00 in0.0 mm 0.00 in0.0 mm 0.00 in0.0 mm
02:54 PM 46.6°F8.1°C 12.7°F-10.7°C 25% 6.4 mph NE10.3 kmh NE 10.2 mph16.4 kmh 29.95 in1014.2 mb 0.00 in0.0 mm 0.00 in0.0 mm 0.00 in0.0 mm
02:59 PM 46.8°F8.2°C 11.9°F-11.2°C 24% 5.9 mph NNE9.5 kmh NNE 10.4 mph16.7 kmh 29.94 in1013.9 mb 0.00 in0.0 mm 0.00 in0.0 mm 0.00 in0.0 mm
03:04 PM 46.7°F8.2°C 11.9°F-11.2°C 24% 6.7 mph N10.8 kmh N 10.9 mph17.5 kmh 29.94 in1013.9 mb 0.00 in0.0 mm 0.00 in0.0 mm 0.00 in0.0 mm
03:09 PM 46.8°F8.2°C 11.0°F-11.7°C 23% 5.8 mph NNE9.3 kmh NNE 8.9 mph14.3 kmh 29.94 in1013.9 mb 0.00 in0.0 mm 0.00 in0.0 mm 0.00 in0.0 mm
03:14 PM 47.1°F8.4°C 11.2°F-11.6°C 23% 9.5 mph N15.3 kmh N 14.6 mph23.5 kmh 29.94 in1013.9 mb 0.00 in0.0 mm 0.00 in0.0 mm 0.00 in0.0 mm
03:19 PM 47.2°F8.4°C 11.3°F-11.5°C 23% 8.3 mph NNE13.4 kmh NNE 13.6 mph21.9 kmh 29.95 in1014.2 mb 0.00 in0.0 mm 0.00 in0.0 mm 0.00 in0.0 mm
03:24 PM 47.2°F8.4°C 12.3°F-10.9°C 24% 7.3 mph N11.7 kmh N 11.4 mph18.3 kmh 29.94 in1013.9 mb 0.00 in0.0 mm 0.00 in0.0 mm 0.00 in0.0 mm
03:29 PM 47.2°F8.4°C 11.3°F-11.5°C 23% 8.8 mph N14.2 kmh N 13.4 mph21.6 kmh 29.94 in1013.9 mb 0.00 in0.0 mm 0.00 in0.0 mm 0.00 in0.0 mm
03:34 PM 47.2°F8.4°C 11.3°F-11.5°C 23% 9.2 mph N14.8 kmh N 15.7 mph25.3 kmh 29.94 in1013.9 mb 0.00 in0.0 mm 0.00 in0.0 mm 0.00 in0.0 mm
03:39 PM 47.3°F8.5°C 11.4°F-11.4°C 23% 8.3 mph N13.4 kmh N 13.1 mph21.1 kmh 29.94 in1013.9 mb 0.00 in0.0 mm 0.00 in0.0 mm 0.00 in0.0 mm
03:44 PM 47.6°F8.7°C 11.7°F-11.3°C 23% 6.7 mph N10.8 kmh N 10.4 mph16.7 kmh 29.94 in1013.9 mb 0.00 in0.0 mm 0.00 in0.0 mm 0.00 in0.0 mm
03:49 PM 47.6°F8.7°C 11.7°F-11.3°C 23% 6.0 mph N9.7 kmh N 9.5 mph15.3 kmh 29.94 in1013.9 mb 0.00 in0.0 mm 0.00 in0.0 mm 0.00 in0.0 mm
03:54 PM 47.6°F8.7°C 11.7°F-11.3°C 23% 7.7 mph N12.4 kmh N 11.5 mph18.5 kmh 29.94 in1013.9 mb 0.00 in0.0 mm 0.00 in0.0 mm 0.00 in0.0 mm
03:59 PM 47.8°F8.8°C 11.8°F-11.2°C 23% 9.4 mph N15.1 kmh N 13.7 mph22.0 kmh 29.94 in1013.9 mb 0.00 in0.0 mm 0.00 in0.0 mm 0.00 in0.0 mm
04:04 PM 47.9°F8.8°C 11.9°F-11.2°C 23% 5.4 mph NE8.7 kmh NE 8.4 mph13.5 kmh 29.94 in1013.9 mb 0.00 in0.0 mm 0.00 in0.0 mm 0.00 in0.0 mm
04:09 PM 47.6°F8.7°C 11.7°F-11.3°C 23% 5.9 mph NNE9.5 kmh NNE 10.9 mph17.5 kmh 29.94 in1013.9 mb 0.00 in0.0 mm 0.00 in0.0 mm 0.00 in0.0 mm
04:14 PM 47.5°F8.6°C 10.6°F-11.9°C 22% 6.7 mph NNE10.8 kmh NNE 10.5 mph16.9 kmh 29.94 in1013.9 mb 0.00 in0.0 mm 0.00 in0.0 mm 0.00 in0.0 mm
04:19 PM 47.4°F8.6°C 10.5°F-11.9°C 22% 5.9 mph NNE9.5 kmh NNE 10.7 mph17.2 kmh 29.94 in1013.9 mb 0.00 in0.0 mm 0.00 in0.0 mm 0.00 in0.0 mm
04:24 PM 47.5°F8.6°C 10.6°F-11.9°C 22% 7.1 mph NNE11.4 kmh NNE 10.7 mph17.2 kmh 29.94 in1013.9 mb 0.00 in0.0 mm 0.00 in0.0 mm 0.00 in0.0 mm
04:29 PM 47.7°F8.7°C 10.7°F-11.8°C 22% 6.7 mph N10.8 kmh N 9.7 mph15.6 kmh 29.93 in1013.5 mb 0.00 in0.0 mm 0.00 in0.0 mm 0.00 in0.0 mm
04:34 PM 47.7°F8.7°C 10.7°F-11.8°C 22% 8.6 mph N13.8 kmh N 13.4 mph21.6 kmh 29.93 in1013.5 mb 0.00 in0.0 mm 0.00 in0.0 mm 0.00 in0.0 mm
04:39 PM 47.6°F8.7°C 10.7°F-11.8°C 22% 6.9 mph NNE11.1 kmh NNE 10.1 mph16.3 kmh 29.93 in1013.5 mb 0.00 in0.0 mm 0.00 in0.0 mm 0.00 in0.0 mm
04:44 PM 47.3°F8.5°C 10.4°F-12.0°C 22% 4.8 mph N7.7 kmh N 7.9 mph12.7 kmh 29.94 in1013.9 mb 0.00 in0.0 mm 0.00 in0.0 mm 0.00 in0.0 mm
04:49 PM 47.4°F8.6°C 10.5°F-11.9°C 22% 5.4 mph NE8.7 kmh NE 9.1 mph14.6 kmh 29.94 in1013.9 mb 0.00 in0.0 mm 0.00 in0.0 mm 0.00 in0.0 mm
04:54 PM 47.3°F8.5°C 10.4°F-12.0°C 22% 6.5 mph N10.5 kmh N 11.8 mph19.0 kmh 29.93 in1013.5 mb 0.00 in0.0 mm 0.00 in0.0 mm 0.00 in0.0 mm
04:59 PM 47.2°F8.4°C 10.3°F-12.1°C 22% 5.6 mph N9.0 kmh N 10.9 mph17.5 kmh 29.93 in1013.5 mb 0.00 in0.0 mm 0.00 in0.0 mm 0.00 in0.0 mm
05:04 PM 47.2°F8.4°C 10.3°F-12.1°C 22% 7.3 mph N11.7 kmh N 11.5 mph18.5 kmh 29.93 in1013.5 mb 0.00 in0.0 mm 0.00 in0.0 mm 0.00 in0.0 mm
05:09 PM 47.2°F8.4°C 10.3°F-12.1°C 22% 8.2 mph NNE13.2 kmh NNE 13.2 mph21.2 kmh 29.93 in1013.5 mb 0.00 in0.0 mm 0.00 in0.0 mm 0.00 in0.0 mm
05:14 PM 47.0°F8.3°C 10.2°F-12.1°C 22% 8.0 mph NNE12.9 kmh NNE 12.0 mph19.3 kmh 29.93 in1013.5 mb 0.00 in0.0 mm 0.00 in0.0 mm 0.00 in0.0 mm
05:19 PM 46.9°F8.3°C 10.1°F-12.2°C 22% 6.5 mph NNE10.5 kmh NNE 9.6 mph15.4 kmh 29.93 in1013.5 mb 0.00 in0.0 mm 0.00 in0.0 mm 0.00 in0.0 mm
05:24 PM 46.8°F8.2°C 10.0°F-12.2°C 22% 6.8 mph N10.9 kmh N 10.6 mph17.1 kmh 29.93 in1013.5 mb 0.00 in0.0 mm 0.00 in0.0 mm 0.00 in0.0 mm
05:29 PM 46.7°F8.2°C 9.9°F-12.3°C 22% 6.4 mph N10.3 kmh N 9.8 mph15.8 kmh 29.92 in1013.2 mb 0.00 in0.0 mm 0.00 in0.0 mm 0.00 in0.0 mm
05:34 PM 46.6°F8.1°C 9.8°F-12.3°C 22% 3.9 mph NNE6.3 kmh NNE 6.2 mph10.0 kmh 29.92 in1013.2 mb 0.00 in0.0 mm 0.00 in0.0 mm 0.00 in0.0 mm
05:39 PM 46.3°F7.9°C 9.6°F-12.4°C 22% 6.0 mph N9.7 kmh N 9.9 mph15.9 kmh 29.92 in1013.2 mb 0.00 in0.0 mm 0.00 in0.0 mm 0.00 in0.0 mm
05:44 PM 46.2°F7.9°C 10.5°F-11.9°C 23% 5.9 mph N9.5 kmh N 9.6 mph15.4 kmh 29.93 in1013.5 mb 0.00 in0.0 mm 0.00 in0.0 mm 0.00 in0.0 mm
05:49 PM 46.0°F7.8°C 10.3°F-12.1°C 23% 6.8 mph N10.9 kmh N 11.2 mph18.0 kmh 29.92 in1013.2 mb 0.00 in0.0 mm 0.00 in0.0 mm 0.00 in0.0 mm
05:54 PM 45.8°F7.7°C 10.1°F-12.2°C 23% 5.5 mph N8.9 kmh N 7.8 mph12.6 kmh 29.92 in1013.2 mb 0.00 in0.0 mm 0.00 in0.0 mm 0.00 in0.0 mm
05:59 PM 45.6°F7.6°C 10.0°F-12.2°C 23% 7.1 mph N11.4 kmh N 10.5 mph16.9 kmh 29.93 in1013.5 mb 0.00 in0.0 mm 0.00 in0.0 mm 0.00 in0.0 mm
06:04 PM 45.3°F7.4°C 9.7°F-12.4°C 23% 6.9 mph N11.1 kmh N 10.4 mph16.7 kmh 29.92 in1013.2 mb 0.00 in0.0 mm 0.00 in0.0 mm 0.00 in0.0 mm
06:09 PM 45.0°F7.2°C 9.5°F-12.5°C 23% 6.9 mph N11.1 kmh N 10.1 mph16.3 kmh 29.93 in1013.5 mb 0.00 in0.0 mm 0.00 in0.0 mm 0.00 in0.0 mm
06:14 PM 44.7°F7.1°C 9.2°F-12.7°C 23% 7.4 mph NNE11.9 kmh NNE 11.8 mph19.0 kmh 29.93 in1013.5 mb 0.00 in0.0 mm 0.00 in0.0 mm 0.00 in0.0 mm
06:19 PM 44.6°F7.0°C 9.1°F-12.7°C 23% 5.3 mph NNE8.5 kmh NNE 8.8 mph14.2 kmh 29.93 in1013.5 mb 0.00 in0.0 mm 0.00 in0.0 mm 0.00 in0.0 mm
06:24 PM 44.4°F6.9°C 9.0°F-12.8°C 23% 4.8 mph N7.7 kmh N 7.1 mph11.4 kmh 29.93 in1013.5 mb 0.00 in0.0 mm 0.00 in0.0 mm 0.00 in0.0 mm
06:29 PM 44.0°F6.7°C 9.6°F-12.4°C 24% 4.3 mph NNE6.9 kmh NNE 6.7 mph10.8 kmh 29.93 in1013.5 mb 0.00 in0.0 mm 0.00 in0.0 mm 0.00 in0.0 mm
06:34 PM 43.4°F6.3°C 9.1°F-12.7°C 24% 3.7 mph NNE6.0 kmh NNE 5.7 mph9.2 kmh 29.93 in1013.5 mb 0.00 in0.0 mm 0.00 in0.0 mm 0.00 in0.0 mm
06:39 PM 42.8°F6.0°C 9.4°F-12.6°C 25% 4.0 mph N6.4 kmh N 5.9 mph9.5 kmh 29.93 in1013.5 mb 0.00 in0.0 mm 0.00 in0.0 mm 0.00 in0.0 mm
06:44 PM 42.6°F5.9°C 10.1°F-12.2°C 26% 5.1 mph NNE8.2 kmh NNE 8.0 mph12.9 kmh 29.93 in1013.5 mb 0.00 in0.0 mm 0.00 in0.0 mm 0.00 in0.0 mm
06:49 PM 42.5°F5.8°C 10.1°F-12.2°C 26% 4.0 mph NNE6.4 kmh NNE 5.9 mph9.5 kmh 29.93 in1013.5 mb 0.00 in0.0 mm 0.00 in0.0 mm 0.00 in0.0 mm
06:54 PM 42.3°F5.7°C 9.9°F-12.3°C 26% 3.9 mph N6.3 kmh N 6.1 mph9.8 kmh 29.94 in1013.9 mb 0.00 in0.0 mm 0.00 in0.0 mm 0.00 in0.0 mm
06:59 PM 41.8°F5.4°C 9.5°F-12.5°C 26% 5.4 mph N8.7 kmh N 8.7 mph14.0 kmh 29.94 in1013.9 mb 0.00 in0.0 mm 0.00 in0.0 mm 0.00 in0.0 mm
07:04 PM 41.5°F5.3°C 10.0°F-12.2°C 27% 3.9 mph N6.3 kmh N 6.2 mph10.0 kmh 29.94 in1013.9 mb 0.00 in0.0 mm 0.00 in0.0 mm 0.00 in0.0 mm
07:09 PM 41.5°F5.3°C 10.0°F-12.2°C 27% 4.6 mph NNE7.4 kmh NNE 7.2 mph11.6 kmh 29.94 in1013.9 mb 0.00 in0.0 mm 0.00 in0.0 mm 0.00 in0.0 mm
07:14 PM 41.2°F5.1°C 10.6°F-11.9°C 28% 4.1 mph N6.6 kmh N 5.7 mph9.2 kmh 29.94 in1013.9 mb 0.00 in0.0 mm 0.00 in0.0 mm 0.00 in0.0 mm
07:19 PM 40.8°F4.9°C 10.3°F-12.1°C 28% 3.9 mph N6.3 kmh N 6.1 mph9.8 kmh 29.94 in1013.9 mb 0.00 in0.0 mm 0.00 in0.0 mm 0.00 in0.0 mm
07:24 PM 40.4°F4.7°C 10.7°F-11.8°C 29% 3.6 mph N5.8 kmh N 4.8 mph7.7 kmh 29.94 in1013.9 mb 0.00 in0.0 mm 0.00 in0.0 mm 0.00 in0.0 mm
07:29 PM 40.0°F4.4°C 10.3°F-12.1°C 29% 4.3 mph N6.9 kmh N 6.2 mph10.0 kmh 29.94 in1013.9 mb 0.00 in0.0 mm 0.00 in0.0 mm 0.00 in0.0 mm
07:34 PM 39.6°F4.2°C 10.8°F-11.8°C 30% 4.0 mph NNE6.4 kmh NNE 5.7 mph9.2 kmh 29.94 in1013.9 mb 0.00 in0.0 mm 0.00 in0.0 mm 0.00 in0.0 mm
07:39 PM 39.5°F4.2°C 10.7°F-11.8°C 30% 3.1 mph N5.0 kmh N 4.8 mph7.7 kmh 29.94 in1013.9 mb 0.00 in0.0 mm 0.00 in0.0 mm 0.00 in0.0 mm
07:44 PM 39.6°F4.2°C 10.0°F-12.2°C 29% 3.1 mph NNW5.0 kmh NNW 4.5 mph7.2 kmh 29.95 in1014.2 mb 0.00 in0.0 mm 0.00 in0.0 mm 0.00 in0.0 mm
07:49 PM 39.3°F4.1°C 9.7°F-12.4°C 29% 2.8 mph NNW4.5 kmh NNW 3.7 mph6.0 kmh 29.95 in1014.2 mb 0.00 in0.0 mm 0.00 in0.0 mm 0.00 in0.0 mm
07:54 PM 38.8°F3.8°C 10.1°F-12.2°C 30% 2.6 mph NNW4.2 kmh NNW 3.6 mph5.8 kmh 29.94 in1013.9 mb 0.00 in0.0 mm 0.00 in0.0 mm 0.00 in0.0 mm
07:59 PM 38.1°F3.4°C 10.2°F-12.1°C 31% 2.4 mph NNW3.9 kmh NNW 3.3 mph5.3 kmh 29.95 in1014.2 mb 0.00 in0.0 mm 0.00 in0.0 mm 0.00 in0.0 mm
08:04 PM 37.4°F3.0°C 10.3°F-12.1°C 32% 2.3 mph NNW3.7 kmh NNW 3.3 mph5.3 kmh 29.95 in1014.2 mb 0.00 in0.0 mm 0.00 in0.0 mm 0.00 in0.0 mm
08:09 PM 37.0°F2.8°C 9.9°F-12.3°C 32% 1.8 mph N2.9 kmh N 3.0 mph4.8 kmh 29.94 in1013.9 mb 0.00 in0.0 mm 0.00 in0.0 mm 0.00 in0.0 mm
08:14 PM 36.8°F2.7°C 9.7°F-12.4°C 32% 1.5 mph NNE2.4 kmh NNE 2.4 mph3.9 kmh 29.94 in1013.9 mb 0.00 in0.0 mm 0.00 in0.0 mm 0.00 in0.0 mm
08:19 PM 37.1°F2.8°C 9.3°F-12.6°C 31% 0.7 mph NNE1.1 kmh NNE 2.1 mph3.4 kmh 29.94 in1013.9 mb 0.00 in0.0 mm 0.00 in0.0 mm 0.00 in0.0 mm
08:24 PM 37.7°F3.2°C 9.8°F-12.3°C 31% 1.2 mph NE1.9 kmh NE 1.9 mph3.1 kmh 29.94 in1013.9 mb 0.00 in0.0 mm 0.00 in0.0 mm 0.00 in0.0 mm
08:29 PM 37.7°F3.2°C 9.8°F-12.3°C 31% Calm Calm -- 29.94 in1013.9 mb 0.00 in0.0 mm 0.00 in0.0 mm 0.00 in0.0 mm
08:34 PM 37.2°F2.9°C 10.8°F-11.8°C 33% Calm Calm -- 29.94 in1013.9 mb 0.00 in0.0 mm 0.00 in0.0 mm 0.00 in0.0 mm
08:39 PM 36.5°F2.5°C 11.5°F-11.4°C 35% Calm Calm -- 29.94 in1013.9 mb 0.00 in0.0 mm 0.00 in0.0 mm 0.00 in0.0 mm
08:44 PM 35.5°F1.9°C 11.8°F-11.2°C 37% 1.1 mph NNW1.8 kmh NNW 1.6 mph2.6 kmh 29.94 in1013.9 mb 0.00 in0.0 mm 0.00 in0.0 mm 0.00 in0.0 mm
08:49 PM 33.9°F1.1°C 12.7°F-10.7°C 41% 1.2 mph NNW1.9 kmh NNW 1.9 mph3.1 kmh 29.93 in1013.5 mb 0.00 in0.0 mm 0.00 in0.0 mm 0.00 in0.0 mm
08:54 PM 32.3°F0.2°C 13.4°F-10.3°C 45% 1.8 mph NNW2.9 kmh NNW 2.1 mph3.4 kmh 29.94 in1013.9 mb 0.00 in0.0 mm 0.00 in0.0 mm 0.00 in0.0 mm
08:59 PM 31.2°F-0.4°C 14.3°F-9.8°C 49% 1.1 mph NNW1.8 kmh NNW 1.8 mph2.9 kmh 29.93 in1013.5 mb 0.00 in0.0 mm 0.00 in0.0 mm 0.00 in0.0 mm
09:04 PM 30.5°F-0.8°C 14.1°F-9.9°C 50% 0.6 mph NNW1.0 kmh NNW 1.3 mph2.1 kmh 29.93 in1013.5 mb 0.00 in0.0 mm 0.00 in0.0 mm 0.00 in0.0 mm
09:09 PM 30.5°F-0.8°C 12.7°F-10.7°C 47% 1.0 mph NNW1.6 kmh NNW 1.5 mph2.4 kmh 29.93 in1013.5 mb 0.00 in0.0 mm 0.00 in0.0 mm 0.00 in0.0 mm
09:14 PM 30.8°F-0.7°C 13.5°F-10.3°C 48% 0.1 mph NNW0.2 kmh NNW 0.3 mph0.5 kmh 29.92 in1013.2 mb 0.00 in0.0 mm 0.00 in0.0 mm 0.00 in0.0 mm
09:19 PM 30.4°F-0.9°C 14.0°F-10.0°C 50% 1.2 mph NNW1.9 kmh NNW 1.5 mph2.4 kmh 29.92 in1013.2 mb 0.00 in0.0 mm 0.00 in0.0 mm 0.00 in0.0 mm
09:24 PM 29.7°F-1.3°C 14.7°F-9.6°C 53% 0.5 mph NNW0.8 kmh NNW 1.5 mph2.4 kmh 29.92 in1013.2 mb 0.00 in0.0 mm 0.00 in0.0 mm 0.00 in0.0 mm
09:29 PM 29.1°F-1.6°C 15.0°F-9.4°C 55% 0.9 mph NNW1.4 kmh NNW 1.5 mph2.4 kmh 29.92 in1013.2 mb 0.00 in0.0 mm 0.00 in0.0 mm 0.00 in0.0 mm
09:34 PM 28.7°F-1.8°C 15.0°F-9.4°C 56% 0.9 mph NNW1.4 kmh NNW 1.6 mph2.6 kmh 29.92 in1013.2 mb 0.00 in0.0 mm 0.00 in0.0 mm 0.00 in0.0 mm
09:39 PM 28.1°F-2.2°C 15.6°F-9.1°C 59% 0.2 mph NNW0.3 kmh NNW 1.0 mph1.6 kmh 29.91 in1012.9 mb 0.00 in0.0 mm 0.00 in0.0 mm 0.00 in0.0 mm
09:44 PM 27.7°F-2.4°C 15.7°F-9.1°C 60% 0.1 mph NNW0.2 kmh NNW 0.6 mph1.0 kmh 29.91 in1012.9 mb 0.00 in0.0 mm 0.00 in0.0 mm 0.00 in0.0 mm
09:49 PM 27.5°F-2.5°C 15.5°F-9.2°C 60% 1.0 mph NNW1.6 kmh NNW 1.7 mph2.7 kmh 29.91 in1012.9 mb 0.00 in0.0 mm 0.00 in0.0 mm 0.00 in0.0 mm
09:54 PM 27.3°F-2.6°C 15.7°F-9.1°C 61% Calm Calm -- 29.91 in1012.9 mb 0.00 in0.0 mm 0.00 in0.0 mm 0.00 in0.0 mm
09:59 PM 27.3°F-2.6°C 16.0°F-8.9°C 62% 1.3 mph NNW2.1 kmh NNW 1.7 mph2.7 kmh 29.90 in1012.5 mb 0.00 in0.0 mm 0.00 in0.0 mm 0.00 in0.0 mm
10:04 PM 27.1°F-2.7°C 15.8°F-9.0°C 62% 0.2 mph NNW0.3 kmh NNW 0.7 mph1.1 kmh 29.90 in1012.5 mb 0.00 in0.0 mm 0.00 in0.0 mm 0.00 in0.0 mm
10:09 PM 26.7°F-2.9°C 15.8°F-9.0°C 63% 1.3 mph NNW2.1 kmh NNW 1.7 mph2.7 kmh 29.90 in1012.5 mb 0.00 in0.0 mm 0.00 in0.0 mm 0.00 in0.0 mm
10:14 PM 26.5°F-3.1°C 16.4°F-8.7°C 65% 0.9 mph NNW1.4 kmh NNW 1.5 mph2.4 kmh 29.90 in1012.5 mb 0.00 in0.0 mm 0.00 in0.0 mm 0.00 in0.0 mm
10:19 PM 26.3°F-3.2°C 16.2°F-8.8°C 65% 0.7 mph NNW1.1 kmh NNW 1.3 mph2.1 kmh 29.89 in1012.2 mb 0.00 in0.0 mm 0.00 in0.0 mm 0.00 in0.0 mm
10:24 PM 26.3°F-3.2°C 16.5°F-8.6°C 66% 0.5 mph NNW0.8 kmh NNW 1.2 mph1.9 kmh 29.89 in1012.2 mb 0.00 in0.0 mm 0.00 in0.0 mm 0.00 in0.0 mm
10:29 PM 26.0°F-3.3°C 16.2°F-8.8°C 66% 0.5 mph NNW0.8 kmh NNW 1.4 mph2.3 kmh 29.90 in1012.5 mb 0.00 in0.0 mm 0.00 in0.0 mm 0.00 in0.0 mm
10:34 PM 25.7°F-3.5°C 16.3°F-8.7°C 67% 0.1 mph NNW0.2 kmh NNW 0.6 mph1.0 kmh 29.89 in1012.2 mb 0.00 in0.0 mm 0.00 in0.0 mm 0.00 in0.0 mm
10:39 PM 25.6°F-3.6°C 16.5°F-8.6°C 68% Calm Calm -- 29.89 in1012.2 mb 0.00 in0.0 mm 0.00 in0.0 mm 0.00 in0.0 mm
10:44 PM 25.6°F-3.6°C 16.5°F-8.6°C 68% 0.1 mph NNW0.2 kmh NNW 0.3 mph0.5 kmh 29.89 in1012.2 mb 0.00 in0.0 mm 0.00 in0.0 mm 0.00 in0.0 mm
10:49 PM 25.6°F-3.6°C 16.2°F-8.8°C 67% Calm Calm -- 29.89 in1012.2 mb 0.00 in0.0 mm 0.00 in0.0 mm 0.00 in0.0 mm
10:54 PM 25.8°F-3.4°C 16.0°F-8.9°C 66% 0.6 mph NNW1.0 kmh NNW 1.5 mph2.4 kmh 29.89 in1012.2 mb 0.00 in0.0 mm 0.00 in0.0 mm 0.00 in0.0 mm
10:59 PM 26.0°F-3.3°C 16.2°F-8.8°C 66% Calm Calm -- 29.88 in1011.9 mb 0.00 in0.0 mm 0.00 in0.0 mm 0.00 in0.0 mm
11:04 PM 26.1°F-3.3°C 16.0°F-8.9°C 65% 0.1 mph NNW0.2 kmh NNW 0.4 mph0.6 kmh 29.88 in1011.9 mb 0.00 in0.0 mm 0.00 in0.0 mm 0.00 in0.0 mm
11:09 PM 26.0°F-3.3°C 15.9°F-8.9°C 65% Calm Calm -- 29.88 in1011.9 mb 0.00 in0.0 mm 0.00 in0.0 mm 0.00 in0.0 mm
11:14 PM 25.8°F-3.4°C 16.0°F-8.9°C 66% 1.1 mph NNW1.8 kmh NNW 2.0 mph3.2 kmh 29.88 in1011.9 mb 0.00 in0.0 mm 0.00 in0.0 mm 0.00 in0.0 mm
11:19 PM 26.1°F-3.3°C 16.3°F-8.7°C 66% 1.5 mph NNW2.4 kmh NNW 1.9 mph3.1 kmh 29.88 in1011.9 mb 0.00 in0.0 mm 0.00 in0.0 mm 0.00 in0.0 mm
11:24 PM 26.6°F-3.0°C 16.4°F-8.7°C 65% 1.3 mph NNW2.1 kmh NNW 1.8 mph2.9 kmh 29.88 in1011.9 mb 0.00 in0.0 mm 0.00 in0.0 mm 0.00 in0.0 mm
11:29 PM 27.0°F-2.8°C 16.5°F-8.6°C 64% 0.9 mph NNW1.4 kmh NNW 1.8 mph2.9 kmh 29.88 in1011.9 mb 0.00 in0.0 mm 0.00 in0.0 mm 0.00 in0.0 mm
11:34 PM 27.0°F-2.8°C 15.7°F-9.1°C 62% 0.8 mph NNW1.3 kmh NNW 1.5 mph2.4 kmh 29.87 in1011.5 mb 0.00 in0.0 mm 0.00 in0.0 mm 0.00 in0.0 mm
11:39 PM 27.0°F-2.8°C 15.7°F-9.1°C 62% 0.5 mph NNW0.8 kmh NNW 1.2 mph1.9 kmh 29.87 in1011.5 mb 0.00 in0.0 mm 0.00 in0.0 mm 0.00 in0.0 mm
11:44 PM 27.0°F-2.8°C 15.7°F-9.1°C 62% 0.1 mph NNW0.2 kmh NNW 0.6 mph1.0 kmh 29.87 in1011.5 mb 0.00 in0.0 mm 0.00 in0.0 mm 0.00 in0.0 mm
11:49 PM 27.1°F-2.7°C 15.8°F-9.0°C 62% Calm Calm -- 29.86 in1011.2 mb 0.00 in0.0 mm 0.00 in0.0 mm 0.00 in0.0 mm
11:54 PM 27.0°F-2.8°C 16.5°F-8.6°C 64% Calm Calm -- 29.86 in1011.2 mb 0.00 in0.0 mm 0.00 in0.0 mm 0.00 in0.0 mm